createdAt,value
2022-09-06T00:03:27.050Z,0
2022-09-06T00:08:27.409Z,0
2022-09-06T00:13:26.937Z,0
2022-09-06T00:18:27.151Z,0
2022-09-06T00:23:26.539Z,0
2022-09-06T00:28:27.208Z,0
2022-09-06T00:33:31.494Z,0
2022-09-06T00:38:26.987Z,0
2022-09-06T00:43:26.411Z,0
2022-09-06T00:48:26.613Z,0
2022-09-06T00:53:27.236Z,0
2022-09-06T00:58:27.694Z,0
2022-09-06T01:03:26.561Z,0
2022-09-06T01:08:26.912Z,0
2022-09-06T01:13:26.476Z,0
2022-09-06T01:18:26.753Z,0
2022-09-06T01:23:27.136Z,0
2022-09-06T01:28:27.442Z,0
2022-09-06T01:33:26.891Z,0
2022-09-06T01:38:27.181Z,0
2022-09-06T01:43:26.608Z,0
2022-09-06T01:48:26.840Z,0
2022-09-06T01:53:27.218Z,0
2022-09-06T01:58:27.427Z,0
2022-09-06T02:03:26.776Z,0
2022-09-06T02:08:27.043Z,0
2022-09-06T02:13:27.430Z,0
2022-09-06T02:18:26.494Z,0
2022-09-06T02:23:26.994Z,0
2022-09-06T02:28:27.280Z,0
2022-09-06T02:33:26.698Z,0
2022-09-06T02:38:27.042Z,0
2022-09-06T02:43:26.667Z,0
2022-09-06T02:48:27.444Z,0
2022-09-06T02:53:27.005Z,0
2022-09-06T02:58:27.390Z,0
2022-09-06T03:03:26.928Z,0
2022-09-06T03:08:27.466Z,0
2022-09-06T03:13:26.905Z,0
2022-09-06T03:18:27.618Z,0
2022-09-06T03:23:27.009Z,0
2022-09-06T03:28:27.173Z,0
2022-09-06T03:33:26.839Z,0
2022-09-06T03:38:27.244Z,0
2022-09-06T03:43:26.930Z,0
2022-09-06T03:48:27.337Z,0
2022-09-06T03:53:26.681Z,0
2022-09-06T03:58:27.081Z,0
2022-09-06T04:03:27.128Z,0
2022-09-06T04:08:27.547Z,0
2022-09-06T04:13:27.051Z,0
2022-09-06T04:18:27.442Z,0
2022-09-06T04:23:26.937Z,0
2022-09-06T04:28:27.175Z,0
2022-09-06T04:33:27.038Z,0
2022-09-06T04:38:27.405Z,0
2022-09-06T04:43:26.943Z,0
2022-09-06T04:48:27.147Z,0
2022-09-06T04:53:26.694Z,4.2
2022-09-06T04:58:27.263Z,4.2
2022-09-06T05:03:26.759Z,7
2022-09-06T05:08:26.983Z,7
2022-09-06T05:13:27.429Z,9.4
2022-09-06T05:18:26.915Z,9.4
2022-09-06T05:23:27.528Z,12
2022-09-06T05:28:26.742Z,12
2022-09-06T05:33:27.122Z,18
2022-09-06T05:38:29.723Z,18
2022-09-06T05:43:27.219Z,26.2
2022-09-06T05:48:27.600Z,26.2
2022-09-06T05:53:27.092Z,32.2
2022-09-06T05:58:27.276Z,32.2
2022-09-06T06:03:26.732Z,37.8
2022-09-06T06:08:27.109Z,37.8
2022-09-06T06:13:27.587Z,48.3
2022-09-06T06:18:26.692Z,48.3
2022-09-06T06:23:26.867Z,57.3
2022-09-06T06:28:27.285Z,57.3
2022-09-06T06:33:26.758Z,68
2022-09-06T06:38:27.884Z,68
2022-09-06T06:43:27.329Z,84.8
2022-09-06T06:48:27.800Z,84.8
2022-09-06T06:53:27.276Z,89.4
2022-09-06T06:58:27.608Z,89.4
2022-09-06T07:03:27.317Z,87.2
2022-09-06T07:08:27.588Z,87.2
2022-09-06T07:13:27.050Z,156.3
2022-09-06T07:18:27.610Z,156.3
2022-09-06T07:28:26.987Z,96.2
2022-09-06T07:33:27.877Z,106.8
2022-09-06T07:38:27.313Z,106.8
2022-09-06T07:43:27.819Z,190.8
2022-09-06T07:48:27.261Z,190.8
2022-09-06T07:53:31.139Z,115.3
2022-09-06T07:58:27.858Z,115.3
2022-09-06T08:03:27.028Z,116
2022-09-06T08:13:27.573Z,116
2022-09-06T08:18:26.925Z,116
2022-09-06T08:23:27.241Z,132.1
2022-09-06T08:28:28.792Z,132.1
2022-09-06T08:33:27.362Z,149.4
2022-09-06T08:38:26.827Z,149.4
2022-09-06T08:43:27.093Z,180
2022-09-06T08:48:27.835Z,180
2022-09-06T08:53:27.744Z,163
2022-09-06T08:58:27.777Z,163
2022-09-06T09:03:26.838Z,228.1
2022-09-06T09:08:27.297Z,228.1
2022-09-06T09:13:26.905Z,243.7
2022-09-06T09:18:31.999Z,243.7
2022-09-06T09:23:27.497Z,164.7
2022-09-06T09:28:27.303Z,164.7
2022-09-06T09:33:27.172Z,184.1
2022-09-06T09:38:27.940Z,184.1
2022-09-06T09:43:27.608Z,131.6
2022-09-06T09:48:26.809Z,131.6
2022-09-06T09:53:27.062Z,124.9
2022-09-06T09:58:27.651Z,124.9
2022-09-06T10:03:27.306Z,109.1
2022-09-06T10:08:26.943Z,109.1
2022-09-06T10:13:27.440Z,97.6
2022-09-06T10:18:27.143Z,97.6
2022-09-06T10:28:27.348Z,100
2022-09-06T10:33:26.875Z,100.4
2022-09-06T10:38:26.977Z,100.4
2022-09-06T10:43:27.034Z,100.7
2022-09-06T10:48:27.406Z,100.7
2022-09-06T10:53:27.085Z,97.8
2022-09-06T10:58:27.657Z,97.8
2022-09-06T11:03:58.324Z,97.2
2022-09-06T11:08:48.669Z,97.2
2022-09-06T11:13:27.527Z,91.5
2022-09-06T11:18:27.892Z,91.5
2022-09-06T11:23:27.282Z,85.3
2022-09-06T11:28:27.850Z,85.3
2022-09-06T11:33:26.974Z,97.2
2022-09-06T11:38:27.324Z,97.2
2022-09-06T11:43:27.654Z,98.4
2022-09-06T11:48:27.266Z,98.4
2022-09-06T11:53:27.738Z,81.8
2022-09-06T11:58:27.269Z,81.8
2022-09-06T12:08:27.210Z,101.3
2022-09-06T12:13:26.849Z,115.1
2022-09-06T12:18:26.904Z,115.1
2022-09-06T12:23:27.146Z,105.7
2022-09-06T12:28:27.449Z,105.7
2022-09-06T12:33:26.928Z,124.4
2022-09-06T12:38:27.203Z,124.4
2022-09-06T12:43:27.610Z,137
2022-09-06T12:48:27.977Z,137
2022-09-06T12:53:27.618Z,117.3
2022-09-06T12:58:27.858Z,117.3
2022-09-06T13:03:27.218Z,97.4
2022-09-06T13:08:27.472Z,97.4
2022-09-06T13:13:27.790Z,95.7
2022-09-06T13:18:27.973Z,95.7
2022-09-06T13:23:27.257Z,90.6
2022-09-06T13:28:27.379Z,90.6
2022-09-06T13:33:27.527Z,74.1
2022-09-06T13:38:27.890Z,74.1
2022-09-06T13:43:27.344Z,70
2022-09-06T13:48:36.295Z,70
2022-09-06T13:53:27.777Z,73.6
2022-09-06T13:58:32.070Z,73.6
2022-09-06T14:03:26.973Z,68.2
2022-09-06T14:08:43.396Z,68.2
2022-09-06T14:13:27.467Z,54.3
2022-09-06T14:18:27.848Z,54.3
2022-09-06T14:23:27.372Z,47
2022-09-06T14:28:27.930Z,47
2022-09-06T14:33:27.404Z,45.2
2022-09-06T14:38:27.682Z,45.2
2022-09-06T14:43:27.490Z,38.1
2022-09-06T14:48:28.044Z,38.1
2022-09-06T14:53:39.713Z,26.5
2022-09-06T14:58:27.041Z,26.5
2022-09-06T15:03:27.395Z,23
2022-09-06T15:08:27.578Z,23
2022-09-06T15:13:27.396Z,25
2022-09-06T15:18:27.166Z,25
2022-09-06T15:23:27.762Z,33.6
2022-09-06T15:28:27.892Z,33.6
2022-09-06T15:33:27.926Z,40
2022-09-06T15:38:27.080Z,40
2022-09-06T15:43:27.740Z,45.1
2022-09-06T15:48:27.057Z,45.1
2022-09-06T15:53:27.118Z,47.4
2022-09-06T15:58:27.788Z,47.4
2022-09-06T16:03:27.970Z,32.7
2022-09-06T16:08:27.716Z,32.7
2022-09-06T16:13:27.188Z,32.7
2022-09-06T16:18:27.560Z,32.7
2022-09-06T16:23:27.691Z,28
2022-09-06T16:28:27.454Z,28
2022-09-06T16:33:27.625Z,25
2022-09-06T16:38:27.966Z,25
2022-09-06T16:43:27.448Z,25.3
2022-09-06T16:48:27.559Z,25.3
2022-09-06T16:53:27.974Z,30
2022-09-06T16:58:27.250Z,30
2022-09-06T17:03:27.486Z,32.8
2022-09-06T17:08:27.953Z,32.8
2022-09-06T17:13:27.230Z,25.2
2022-09-06T17:18:27.394Z,25.2
2022-09-06T17:23:27.598Z,20.3
2022-09-06T17:28:27.713Z,20.3
2022-09-06T17:33:27.924Z,14
2022-09-06T17:38:27.956Z,14
2022-09-06T17:43:27.600Z,9.3
2022-09-06T17:48:27.678Z,9.3
2022-09-06T17:53:27.932Z,0
2022-09-06T17:58:27.141Z,0
2022-09-06T18:03:27.270Z,0
2022-09-06T18:08:27.391Z,0
2022-09-06T18:13:27.425Z,0
2022-09-06T18:18:27.530Z,0
2022-09-06T18:23:27.816Z,0
2022-09-06T18:28:28.063Z,0
2022-09-06T18:33:27.269Z,0
2022-09-06T18:38:27.526Z,0
2022-09-06T18:43:28.006Z,0
2022-09-06T18:48:27.264Z,0
2022-09-06T18:53:27.658Z,0
2022-09-06T18:58:27.914Z,0
2022-09-06T19:03:27.201Z,0
2022-09-06T19:08:27.328Z,0
2022-09-06T19:13:27.471Z,0
2022-09-06T19:18:27.740Z,0
2022-09-06T19:23:27.127Z,0
2022-09-06T19:28:27.888Z,0
2022-09-06T19:33:27.972Z,0
2022-09-06T19:38:37.397Z,0
2022-09-06T19:43:27.179Z,0
2022-09-06T19:48:27.304Z,0
2022-09-06T19:53:27.460Z,0
2022-09-06T19:58:27.800Z,0
2022-09-06T20:03:27.958Z,0
2022-09-06T20:08:28.034Z,0
2022-09-06T20:13:27.103Z,0
2022-09-06T20:18:27.354Z,0
2022-09-06T20:23:27.607Z,0
2022-09-06T20:28:27.904Z,0
2022-09-06T20:33:27.989Z,0
2022-09-06T20:38:27.282Z,0
2022-09-06T20:43:27.541Z,0
2022-09-06T20:48:27.883Z,0
2022-09-06T20:53:27.310Z,0
2022-09-06T20:58:27.600Z,0
2022-09-06T21:03:27.733Z,0
2022-09-06T21:08:34.695Z,0
2022-09-06T21:13:27.803Z,0
2022-09-06T21:18:28.107Z,0
2022-09-06T21:23:27.704Z,0
2022-09-06T21:28:27.594Z,0
2022-09-06T21:33:28.164Z,0
2022-09-06T21:38:28.059Z,0
2022-09-06T21:43:27.329Z,0
2022-09-06T21:48:27.600Z,0
2022-09-06T21:53:27.594Z,0
2022-09-06T21:58:27.783Z,0
2022-09-06T22:03:27.669Z,0
2022-09-06T22:08:27.945Z,0
2022-09-06T22:13:27.722Z,0
2022-09-06T22:18:27.907Z,0
2022-09-06T22:23:28.191Z,0
2022-09-06T22:28:27.545Z,0
2022-09-06T22:33:27.833Z,0
2022-09-06T22:38:28.090Z,0
2022-09-06T22:43:27.357Z,0
2022-09-06T22:48:27.740Z,0
2022-09-06T22:58:27.765Z,0
2022-09-06T23:03:28.096Z,0
2022-09-06T23:08:27.523Z,0
2022-09-06T23:13:27.710Z,0
2022-09-06T23:18:27.835Z,0
2022-09-06T23:23:27.326Z,0
2022-09-06T23:28:27.726Z,0
2022-09-06T23:33:28.108Z,0
2022-09-06T23:38:27.294Z,0
2022-09-06T23:43:27.449Z,0
2022-09-06T23:48:27.655Z,0
2022-09-06T23:53:27.542Z,0
2022-09-06T23:58:27.824Z,0
